• Join FlightAware (Why Join?)
  • Login
  • US Flag 
01:39AM EDT


 

Airport Tracker/Info


-or-


 

Live Flight TrackerFlight Track Log ✈ UAL4583 ✈ 30-Apr-2013 ✈ KEWR - KBNA

Flight Track Log - Related Links

Times and Time Zones

All times are in EDT time to prevent confusion due to time zone crossing. See the UAL4583 flight status page for this flight to view local times or setup timezone preferences in your user account.

Time Position Orientation Groundspeed Altitude Reporting Facility
EDT Latitude Longitude Course Direction KTS MPH feet Rate Location/Type
03:53PM 40.6333 -74.2167 258° West 200 230 2,600  Level New York TRACON
03:54PM 40.6000 -74.3000 242° Southwest 269 310 4,500 2,100 Climbing New York TRACON
03:55PM 40.6000 -74.4000 270° West 278 320 6,800 2,400 Climbing New York TRACON
03:56PM 40.6833 -74.7353 270° West  Level FlightAware Approximate
03:56PM 40.6000 -74.5000 270° West 277 319 9,300  Level New York TRACON
03:57PM 40.6834 -74.8774 270° West  Level FlightAware Approximate
03:57PM 40.6167 -74.6000 282° West 302 348 11,000  Level New York TRACON
03:58PM 40.6747 -75.0184 258° West  Level FlightAware Approximate
03:58PM 40.6333 -74.7089 281° West 313 360 13,000  Level New York Center
03:59PM 40.6469 -74.8000 281° West 301 346 14,800 1,440 Climbing New York Center
04:00PM 40.6636 -74.9214 280° West 306 352 15,900 660 Climbing New York Center
04:01PM 40.6767 -75.0261 279° West 318 366 16,200 660 Climbing New York Center
04:02PM 40.6444 -75.1608 253° West 338 389 17,300 780 Climbing New York Center
04:03PM 40.5969 -75.2644 239° Southwest 353 406 17,800 780 Climbing New York Center
04:04PM 40.5375 -75.3969 239° Southwest 372 428 18,900 960 Climbing New York Center
04:05PM 40.4828 -75.5161 239° Southwest 377 434 19,800 900 Climbing New York Center
04:06PM 40.4278 -75.6406 240° Southwest 382 440 20,700 900 Climbing New York Center
04:07PM 40.3703 -75.7672 239° Southwest 394 453 21,700 900 Climbing New York Center
04:08PM 40.3108 -75.8936 238° Southwest 399 459 22,600 900 Climbing New York Center
04:09PM 40.2536 -76.0064 236° Southwest 412 474 23,500 840 Climbing New York Center
04:10PM 40.1936 -76.1350 239° Southwest 417 480 24,400 900 Climbing New York Center
04:11PM 40.1292 -76.2683 238° Southwest 410 472 25,400 960 Climbing New York Center
04:12PM 40.0692 -76.3939 238° Southwest 410 472 26,400 900 Climbing New York Center
04:14PM 39.9761 -76.6039 240° Southwest 416 479 28,000 900 Climbing Washington Center
04:15PM 39.9186 -76.7278 239° Southwest 416 479 28,900 900 Climbing Washington Center
04:16PM 39.8528 -76.8617 237° Southwest 416 479 29,900 960 Climbing Washington Center
04:17PM 39.7931 -76.9878 238° Southwest 416 479 30,900 900 Climbing Washington Center
04:18PM 39.7353 -77.1133 239° Southwest 411 473 31,800 900 Climbing Washington Center
04:19PM 39.6753 -77.2389 238° Southwest 411 473 32,800 900 Climbing Washington Center
04:20PM 39.6153 -77.3667 239° Southwest 411 473 33,700 900 Climbing Washington Center
04:21PM 39.5550 -77.4917 238° Southwest 411 473 34,600 840 Climbing Washington Center
04:22PM 39.5131 -77.6253 248° West 411 473 35,500 660 Climbing Washington Center
04:23PM 39.4775 -77.7639 252° West 405 466 36,000 240 Climbing Washington Center
04:24PM 39.4394 -77.9053 251° West 416 479 36,000  Level Washington Center
04:25PM 39.4031 -78.0517 252° West 427 491 36,000  Level Washington Center
04:26PM 39.3644 -78.2008 252° West 432 497 36,000  Level Washington Center
04:27PM 39.3258 -78.3469 251° West 437 503 36,000  Level Washington Center
04:28PM 39.2850 -78.4931 250° West 437 503 36,000  Level Washington Center
04:29PM 39.2458 -78.6414 251° West 437 503 36,000  Level Washington Center
04:30PM 39.2086 -78.7872 252° West 437 503 36,000  Level Washington Center
04:31PM 39.1672 -78.9353 250° West 437 503 36,000  Level Washington Center
04:32PM 39.1275 -79.0808 251° West 437 503 36,000  Level Washington Center
04:33PM 39.0878 -79.2261 251° West 437 503 36,000  Level Washington Center
04:34PM 39.0478 -79.3764 251° West 437 503 36,000  Level Washington Center
04:35PM 39.0056 -79.5239 250° West 437 503 36,000  Level Washington Center
04:36PM 38.9675 -79.6658 251° West 450 518 36,000  Level Washington Center
04:37PM 38.9222 -79.8261 250° West 450 518 36,000  Level Washington Center
04:39PM 38.8308 -80.1342 249° West 441 507 36,000  Level Indianapolis Center
04:40PM 38.7808 -80.3117 250° West 440 506 36,000  Level Indianapolis Center
04:41PM 38.7392 -80.4597 250° West 441 507 36,000  Level Indianapolis Center
04:42PM 38.6978 -80.6097 251° West 442 509 36,000  Level Indianapolis Center
04:43PM 38.6556 -80.7539 249° West 440 506 36,000  Level Indianapolis Center
04:44PM 38.6142 -80.8983 250° West 433 498 36,000  Level Indianapolis Center
04:45PM 38.5731 -81.0425 250° West 431 496 36,000  Level Indianapolis Center
04:46PM 38.5303 -81.1856 249° West 428 493 36,000  Level Indianapolis Center
04:48PM 38.4886 -81.3292 250° West 426 490 36,000  Level Indianapolis Center
04:49PM 38.4383 -81.5019 250° West 427 491 36,000  Level Indianapolis Center
04:50PM 38.3969 -81.6431 250° West 422 486 36,000  Level Indianapolis Center
04:51PM 38.3553 -81.7831 249° West 420 483 36,000  Level Indianapolis Center
04:52PM 38.3139 -81.9233 249° West 422 486 36,000  Level Indianapolis Center
04:53PM 38.2725 -82.0628 249° West 420 483 36,000  Level Indianapolis Center
04:54PM 38.2297 -82.2033 249° West 424 488 36,000  Level Indianapolis Center
04:55PM 38.1858 -82.3436 248° West 426 490 36,000  Level Indianapolis Center
04:56PM 38.1272 -82.4728 240° Southwest 424 488 36,000  Level Indianapolis Center
04:57PM 38.0542 -82.6336 240° Southwest 427 491 36,000  Level Indianapolis Center
04:58PM 37.9956 -82.7636 240° Southwest 426 490 36,000  Level Indianapolis Center
04:59PM 37.9375 -82.8942 241° Southwest 426 490 36,000  Level Indianapolis Center
05:00PM 37.8772 -83.0228 239° Southwest 427 491 36,000 -240 Level Indianapolis Center
05:01PM 37.8186 -83.1536 240° Southwest 427 491 35,600 -780 Descending Indianapolis Center
05:02PM 37.7486 -83.3047 240° Southwest 429 494 34,400 -780 Descending Indianapolis Center
05:03PM 37.6892 -83.4331 240° Southwest 425 489 34,000 -240 Descending Indianapolis Center
05:04PM 37.6322 -83.5564 240° Southwest 409 471 34,000  Level Indianapolis Center
05:05PM 37.5739 -83.6828 240° Southwest 416 479 34,000 -240 Level Indianapolis Center
05:06PM 37.5133 -83.8114 239° Southwest 425 489 33,600 -480 Descending Indianapolis Center
05:07PM 37.4422 -83.9625 239° Southwest 428 493 33,000 -300 Descending Indianapolis Center
05:08PM 37.3817 -84.0911 239° Southwest 426 490 33,000  Level Indianapolis Center
05:09PM 37.3211 -84.2208 240° Southwest 431 496 33,000 -540 Level Indianapolis Center
05:10PM 37.2586 -84.3494 239° Southwest 431 496 32,000 -1,020 Descending Indianapolis Center
05:11PM 37.1994 -84.4728 239° Southwest 415 478 31,000 -1,080 Descending Indianapolis Center
05:12PM 37.1328 -84.6147 240° Southwest 405 466 29,800 -1,260 Descending Indianapolis Center
05:13PM 37.0733 -84.7375 239° Southwest 412 474 28,500 -1,080 Descending Indianapolis Center
05:14PM 37.0142 -84.8594 239° Southwest 421 484 27,600 -1,380 Descending Indianapolis Center
05:15PM 36.9514 -84.9903 239° Southwest 436 502 25,700 -1,860 Descending Indianapolis Center
05:16PM 36.8861 -85.1233 239° Southwest 446 513 23,800 -1,800 Descending Indianapolis Center
05:17PM 36.8114 -85.2778 239° Southwest 436 502 22,000 -1,380 Descending Indianapolis Center
05:19PM 36.7483 -85.4044 238° Southwest 432 497 21,000 -1,320 Descending Indianapolis Center
05:19PM 36.7225 -85.4567 238° Southwest 445 512 20,200 -2,220 Descending Memphis Center
05:20PM 36.6650 -85.5819 240° Southwest 438 504 18,100 -2,040 Descending Memphis Center
05:21PM 36.6050 -85.7069 239° Southwest 433 498 16,200 -1,980 Descending Memphis Center
05:22PM 36.5492 -85.8289 240° Southwest 426 490 14,200 -2,100 Descending Memphis Center
05:23PM 36.4947 -85.9378 238° Southwest 393 452 12,100 -1,800 Descending Memphis Center
05:24PM 36.4481 -86.0383 240° Southwest 358 412 10,700 -1,440 Descending Memphis Center
05:25PM 36.4053 -86.1258 239° Southwest 316 364 9,300 -1,620 Descending Memphis Center
05:26PM 36.3725 -86.2022 242° Southwest 297 342 7,500 -1,800 Descending Memphis Center
05:27PM 36.3419 -86.2861 246° West 282 325 5,800 -1,680 Descending Memphis Center
05:28PM 36.3092 -86.3703 244° Southwest 275 316 4,200 -1,380 Descending Memphis Center
05:29PM 36.2825 -86.4489 247° West 256 295 3,100 -600 Descending Memphis Center
05:30PM 36.2556 -86.5197 245° Southwest 244 281 3,000 -120 Descending Memphis Center